createdAt,value
2023-07-09T00:00:12.765Z,243.00
2023-07-09T00:01:12.782Z,245.80
2023-07-09T00:02:12.796Z,249.32
2023-07-09T00:03:12.874Z,249.71
2023-07-09T00:04:12.904Z,248.26
2023-07-09T00:05:12.970Z,249.45
2023-07-09T00:06:13.017Z,244.79
2023-07-09T00:07:13.050Z,245.30
2023-07-09T00:08:13.108Z,242.86
2023-07-09T00:09:13.176Z,243.00
2023-07-09T00:10:13.241Z,247.62
2023-07-09T00:11:13.275Z,240.68
2023-07-09T00:12:13.306Z,240.31
2023-07-09T00:13:13.375Z,233.38
2023-07-09T00:14:13.434Z,234.83
2023-07-09T00:15:13.447Z,235.22
2023-07-09T00:16:13.500Z,232.71
2023-07-09T00:17:13.524Z,230.81
2023-07-09T00:18:13.556Z,228.70
2023-07-09T00:19:13.608Z,227.40
2023-07-09T00:20:13.657Z,228.87
2023-07-09T00:21:13.689Z,229.08
2023-07-09T00:22:13.735Z,229.14
2023-07-09T00:23:13.762Z,228.67
2023-07-09T00:24:13.820Z,230.28
2023-07-09T00:25:13.873Z,231.53
2023-07-09T00:26:13.918Z,230.39
2023-07-09T00:27:13.947Z,231.91
2023-07-09T00:28:14.002Z,230.24
2023-07-09T00:29:14.029Z,231.86
2023-07-09T00:30:14.065Z,230.66
2023-07-09T00:31:14.131Z,231.33
2023-07-09T00:32:14.157Z,232.25
2023-07-09T00:33:14.220Z,233.53
2023-07-09T00:34:14.289Z,233.96
2023-07-09T00:35:14.314Z,234.06
2023-07-09T00:36:14.353Z,233.44
2023-07-09T00:37:14.409Z,236.14
2023-07-09T00:38:14.585Z,237.67
2023-07-09T00:39:14.427Z,237.76
2023-07-09T00:40:14.421Z,238.40
2023-07-09T00:41:14.434Z,238.64
2023-07-09T00:42:14.419Z,237.42
2023-07-09T00:43:14.428Z,237.61
2023-07-09T00:44:14.404Z,243.55
2023-07-09T00:45:14.410Z,243.28
2023-07-09T00:46:14.437Z,249.07
2023-07-09T00:47:14.405Z,250.00
2023-07-09T00:48:14.423Z,247.04
2023-07-09T00:49:14.489Z,241.67
2023-07-09T00:50:14.549Z,241.95
2023-07-09T00:51:14.623Z,240.49
2023-07-09T00:52:14.636Z,242.31
2023-07-09T00:53:14.697Z,237.34
2023-07-09T00:54:14.785Z,232.38
2023-07-09T00:55:14.833Z,236.11
2023-07-09T00:56:14.862Z,234.18
2023-07-09T00:57:14.899Z,229.53
2023-07-09T00:58:14.986Z,238.32
2023-07-09T00:59:15.049Z,236.45
2023-07-09T01:00:15.160Z,238.81
2023-07-09T01:01:15.170Z,242.14
2023-07-09T01:02:15.188Z,241.97
2023-07-09T01:03:15.267Z,239.64
2023-07-09T01:04:15.260Z,236.82
2023-07-09T01:05:15.305Z,240.17
2023-07-09T01:06:15.238Z,244.40
2023-07-09T01:07:15.250Z,247.60
2023-07-09T01:08:15.256Z,247.37
2023-07-09T01:09:15.276Z,246.27
2023-07-09T01:10:15.248Z,245.68
2023-07-09T01:11:15.279Z,244.87
2023-07-09T01:12:15.367Z,243.29
2023-07-09T01:13:15.413Z,240.70
2023-07-09T01:14:15.474Z,241.98
2023-07-09T01:15:15.547Z,237.97
2023-07-09T01:16:15.594Z,240.39
2023-07-09T01:17:15.665Z,241.14
2023-07-09T01:18:15.707Z,239.68
2023-07-09T01:19:15.771Z,239.74
2023-07-09T01:20:15.822Z,242.24
2023-07-09T01:21:15.895Z,245.12
2023-07-09T01:22:15.975Z,245.47
2023-07-09T01:23:16.055Z,244.45
2023-07-09T01:24:16.105Z,241.28
2023-07-09T01:25:16.130Z,242.58
2023-07-09T01:26:16.215Z,239.53
2023-07-09T01:27:16.251Z,239.45
2023-07-09T01:28:16.339Z,237.18
2023-07-09T01:29:16.362Z,239.38
2023-07-09T01:30:16.404Z,237.67
2023-07-09T01:31:16.548Z,239.02
2023-07-09T01:32:16.521Z,237.52
2023-07-09T01:33:16.618Z,237.86
2023-07-09T01:34:16.684Z,240.07
2023-07-09T01:35:16.717Z,243.50
2023-07-09T01:36:16.831Z,241.08
2023-07-09T01:37:16.811Z,241.16
2023-07-09T01:38:16.947Z,242.92
2023-07-09T01:39:17.627Z,247.69
2023-07-09T01:40:28.811Z,248.63
2023-07-09T01:41:17.977Z,248.79
2023-07-09T01:42:17.022Z,249.39
2023-07-09T01:43:17.007Z,249.93
2023-07-09T01:44:16.967Z,250.01
2023-07-09T01:45:16.989Z,250.82
2023-07-09T01:46:16.980Z,248.21
2023-07-09T01:47:17.060Z,243.96
2023-07-09T01:48:17.533Z,244.00
2023-07-09T01:49:16.952Z,245.46
2023-07-09T01:50:16.929Z,249.34
2023-07-09T01:51:16.954Z,249.30
2023-07-09T01:52:16.971Z,248.89
2023-07-09T01:53:17.040Z,242.52
2023-07-09T01:54:17.056Z,243.19
2023-07-09T01:55:17.053Z,241.96
2023-07-09T01:56:17.094Z,240.74
2023-07-09T01:57:17.185Z,241.42
2023-07-09T01:58:17.202Z,241.18
2023-07-09T01:59:17.248Z,242.12
2023-07-09T02:00:17.269Z,241.99
2023-07-09T02:01:17.339Z,238.01
2023-07-09T02:02:17.353Z,242.10
2023-07-09T02:03:17.355Z,235.94
2023-07-09T02:04:17.389Z,238.82
2023-07-09T02:05:17.400Z,240.19
2023-07-09T02:06:17.412Z,243.12
2023-07-09T02:07:17.412Z,238.12
2023-07-09T02:08:17.392Z,240.01
2023-07-09T02:09:17.400Z,242.57
2023-07-09T02:10:17.448Z,245.19
2023-07-09T02:11:17.392Z,244.86
2023-07-09T02:12:17.427Z,248.55
2023-07-09T02:13:17.384Z,247.06
2023-07-09T02:14:17.452Z,249.90
2023-07-09T02:15:17.448Z,249.49
2023-07-09T02:16:17.459Z,249.77
2023-07-09T02:17:17.514Z,249.52
2023-07-09T02:18:17.546Z,249.26
2023-07-09T02:19:17.544Z,248.48
2023-07-09T02:20:17.553Z,249.37
2023-07-09T02:21:17.564Z,248.89
2023-07-09T02:22:17.534Z,250.00
2023-07-09T02:23:17.545Z,248.73
2023-07-09T02:24:17.552Z,247.21
2023-07-09T02:25:17.539Z,246.20
2023-07-09T02:26:17.626Z,245.93
2023-07-09T02:27:17.611Z,244.46
2023-07-09T02:28:17.604Z,244.12
2023-07-09T02:29:17.609Z,241.15
2023-07-09T02:30:17.614Z,239.56
2023-07-09T02:31:17.609Z,241.67
2023-07-09T02:32:17.588Z,242.16
2023-07-09T02:33:17.610Z,238.23
2023-07-09T02:34:17.658Z,238.58
2023-07-09T02:35:17.602Z,233.57
2023-07-09T02:36:17.624Z,234.99
2023-07-09T02:37:17.607Z,237.37
2023-07-09T02:38:17.618Z,235.50
2023-07-09T02:39:17.625Z,238.60
2023-07-09T02:40:18.143Z,238.96
2023-07-09T02:41:17.642Z,238.88
2023-07-09T02:42:17.624Z,239.48
2023-07-09T02:43:17.658Z,242.72
2023-07-09T02:44:17.661Z,242.26
2023-07-09T02:45:17.629Z,240.14
2023-07-09T02:46:17.638Z,240.65
2023-07-09T02:47:17.671Z,240.56
2023-07-09T02:48:17.678Z,239.11
2023-07-09T02:49:17.625Z,237.78
2023-07-09T02:50:17.624Z,234.52
2023-07-09T02:51:17.621Z,238.33
2023-07-09T02:52:17.639Z,240.68
2023-07-09T02:53:17.671Z,239.82
2023-07-09T02:54:17.683Z,239.63
2023-07-09T02:55:17.686Z,237.13
2023-07-09T02:56:17.775Z,237.50
2023-07-09T02:57:17.724Z,241.35
2023-07-09T02:58:17.747Z,241.02
2023-07-09T02:59:17.771Z,241.86
2023-07-09T03:00:17.773Z,241.60
2023-07-09T03:01:17.781Z,238.82
2023-07-09T03:02:17.919Z,235.19
2023-07-09T03:03:18.405Z,233.59
2023-07-09T03:04:17.853Z,236.49
2023-07-09T03:05:17.875Z,242.14
2023-07-09T03:06:17.906Z,244.56
2023-07-09T03:07:17.913Z,250.00
2023-07-09T03:08:17.941Z,248.63
2023-07-09T03:09:17.952Z,247.45
2023-07-09T03:10:17.957Z,243.41
2023-07-09T03:11:18.010Z,242.61
2023-07-09T03:12:18.054Z,239.68
2023-07-09T03:13:18.065Z,236.94
2023-07-09T03:14:18.059Z,236.72
2023-07-09T03:15:18.085Z,235.47
2023-07-09T03:16:18.082Z,233.16
2023-07-09T03:17:18.139Z,233.15
2023-07-09T03:18:18.168Z,231.89
2023-07-09T03:19:18.171Z,233.88
2023-07-09T03:20:18.195Z,233.41
2023-07-09T03:21:18.193Z,233.53
2023-07-09T03:22:18.203Z,233.24
2023-07-09T03:23:18.244Z,231.31
2023-07-09T03:24:18.263Z,229.68
2023-07-09T03:25:18.291Z,228.45
2023-07-09T03:26:18.305Z,227.61
2023-07-09T03:27:18.289Z,226.38
2023-07-09T03:28:18.301Z,230.00
2023-07-09T03:29:18.309Z,230.86
2023-07-09T03:30:18.352Z,229.55
2023-07-09T03:31:18.429Z,228.73
2023-07-09T03:32:18.413Z,228.83
2023-07-09T03:33:18.375Z,228.70
2023-07-09T03:34:20.248Z,231.20
2023-07-09T03:35:18.414Z,230.48
2023-07-09T03:36:18.436Z,229.52
2023-07-09T03:37:18.451Z,232.05
2023-07-09T03:38:18.445Z,232.00
2023-07-09T03:39:18.453Z,232.46
2023-07-09T03:40:18.504Z,229.84
2023-07-09T03:41:19.222Z,233.30
2023-07-09T03:42:18.544Z,235.99
2023-07-09T03:43:18.542Z,238.82
2023-07-09T03:44:18.578Z,238.49
2023-07-09T03:45:18.565Z,240.10
2023-07-09T03:46:18.631Z,237.29
2023-07-09T03:47:18.667Z,238.65
2023-07-09T03:48:18.739Z,238.45
2023-07-09T03:49:18.662Z,239.89
2023-07-09T03:50:18.674Z,241.20
2023-07-09T03:51:18.724Z,238.78
2023-07-09T03:52:18.724Z,237.31
2023-07-09T03:53:18.733Z,237.47
2023-07-09T03:54:18.780Z,237.22
2023-07-09T03:55:18.790Z,235.10
2023-07-09T03:56:18.804Z,235.33
2023-07-09T03:57:18.854Z,233.36
2023-07-09T03:58:18.872Z,232.23
2023-07-09T03:59:18.887Z,232.13
2023-07-09T04:00:18.893Z,228.81
2023-07-09T04:01:18.940Z,229.72
2023-07-09T04:02:19.000Z,230.36
2023-07-09T04:03:18.921Z,228.57
2023-07-09T04:04:19.086Z,225.72
2023-07-09T04:05:18.971Z,226.42
2023-07-09T04:06:18.972Z,227.87
2023-07-09T04:07:21.145Z,228.00
2023-07-09T04:08:18.997Z,228.07
2023-07-09T04:09:19.041Z,229.20
2023-07-09T04:10:19.070Z,231.06
2023-07-09T04:11:19.084Z,228.83
2023-07-09T04:12:19.093Z,228.17
2023-07-09T04:13:19.122Z,227.37
2023-07-09T04:14:19.183Z,229.56
2023-07-09T04:15:19.142Z,230.22
2023-07-09T04:16:19.265Z,230.30
2023-07-09T04:17:19.227Z,230.46
2023-07-09T04:18:19.289Z,230.06
2023-07-09T04:19:19.260Z,229.82
2023-07-09T04:20:19.288Z,231.91
2023-07-09T04:21:19.318Z,232.39
2023-07-09T04:22:19.319Z,231.01
2023-07-09T04:23:19.362Z,230.50
2023-07-09T04:24:19.391Z,229.25
2023-07-09T04:25:19.394Z,231.48
2023-07-09T04:26:19.400Z,233.14
2023-07-09T04:27:19.401Z,232.46
2023-07-09T04:28:19.483Z,232.76
2023-07-09T04:29:19.457Z,232.03
2023-07-09T04:30:19.460Z,232.58
2023-07-09T04:31:19.492Z,232.76
2023-07-09T04:32:19.552Z,233.92
2023-07-09T04:33:19.525Z,235.22
2023-07-09T04:34:19.549Z,235.76
2023-07-09T04:35:19.549Z,235.87
2023-07-09T04:36:19.561Z,234.09
2023-07-09T04:37:19.574Z,233.59
2023-07-09T04:38:19.661Z,233.29
2023-07-09T04:39:19.617Z,231.51
2023-07-09T04:40:19.645Z,232.19
2023-07-09T04:41:19.684Z,231.37
2023-07-09T04:42:19.685Z,232.27
2023-07-09T04:43:19.709Z,233.08
2023-07-09T04:44:19.752Z,234.57
2023-07-09T04:45:19.739Z,237.49
2023-07-09T04:46:19.832Z,237.65
2023-07-09T04:47:19.822Z,236.39
2023-07-09T04:48:19.856Z,239.65
2023-07-09T04:49:19.873Z,238.77
2023-07-09T04:50:19.915Z,240.34
2023-07-09T04:51:19.922Z,238.72
2023-07-09T04:52:19.963Z,236.62
2023-07-09T04:53:20.007Z,234.56
2023-07-09T04:54:20.029Z,235.37
2023-07-09T04:55:20.083Z,236.04
2023-07-09T04:56:20.129Z,233.05
2023-07-09T04:57:20.136Z,233.10
2023-07-09T04:58:20.220Z,231.70
2023-07-09T04:59:20.240Z,235.69
2023-07-09T05:00:20.259Z,234.68
2023-07-09T05:01:20.371Z,234.16
2023-07-09T05:02:20.406Z,233.63
2023-07-09T05:03:20.422Z,233.17
2023-07-09T05:04:22.212Z,233.40
2023-07-09T05:05:20.472Z,235.97
2023-07-09T05:06:20.491Z,235.31
2023-07-09T05:07:20.545Z,233.97
2023-07-09T05:08:20.545Z,234.85
2023-07-09T05:09:20.602Z,233.68
2023-07-09T05:10:20.649Z,236.70
2023-07-09T05:11:20.688Z,237.73
2023-07-09T05:12:20.718Z,240.13
2023-07-09T05:13:20.787Z,235.22
2023-07-09T05:14:20.800Z,235.71
2023-07-09T05:15:20.846Z,239.23
2023-07-09T05:16:20.931Z,239.78
2023-07-09T05:17:20.997Z,243.31
2023-07-09T05:18:20.975Z,243.92
2023-07-09T05:19:21.026Z,242.35
2023-07-09T05:20:21.060Z,240.77
2023-07-09T05:21:21.106Z,244.49
2023-07-09T05:22:21.131Z,246.15
2023-07-09T05:23:21.219Z,246.65
2023-07-09T05:24:21.244Z,246.02
2023-07-09T05:25:21.296Z,242.94
2023-07-09T05:26:21.322Z,242.18
2023-07-09T05:27:21.372Z,243.49
2023-07-09T05:28:21.413Z,242.60
2023-07-09T05:29:21.450Z,242.50
2023-07-09T05:30:21.530Z,242.19
2023-07-09T05:31:21.567Z,240.16
2023-07-09T05:32:21.657Z,243.94
2023-07-09T05:33:21.664Z,242.67
2023-07-09T05:34:21.712Z,243.64
2023-07-09T05:35:21.758Z,245.16
2023-07-09T05:36:21.811Z,238.20
2023-07-09T05:37:21.856Z,246.69
2023-07-09T05:38:21.911Z,243.63
2023-07-09T05:39:21.927Z,239.76
2023-07-09T05:40:22.007Z,234.95
2023-07-09T05:41:22.022Z,236.23
2023-07-09T05:42:22.094Z,232.59
2023-07-09T05:43:22.171Z,232.48
2023-07-09T05:44:22.174Z,234.91
2023-07-09T05:45:22.229Z,231.92
2023-07-09T05:46:22.297Z,231.23
2023-07-09T05:47:22.332Z,229.91
2023-07-09T05:48:22.340Z,230.46
2023-07-09T05:49:22.419Z,232.76
2023-07-09T05:50:22.440Z,230.04
2023-07-09T05:51:22.479Z,228.91
2023-07-09T05:52:22.474Z,224.77
2023-07-09T05:53:22.517Z,234.11
2023-07-09T05:54:22.564Z,234.36
2023-07-09T05:55:22.589Z,231.50
2023-07-09T05:56:22.630Z,231.52
2023-07-09T05:57:22.625Z,231.81
2023-07-09T05:58:22.664Z,231.65
2023-07-09T05:59:22.696Z,225.85
2023-07-09T06:00:22.697Z,227.52
2023-07-09T06:01:22.848Z,227.16
2023-07-09T06:02:22.858Z,230.85
2023-07-09T06:03:22.934Z,231.81
2023-07-09T06:04:22.855Z,232.19
2023-07-09T06:05:22.872Z,231.78
2023-07-09T06:06:22.871Z,231.63
2023-07-09T06:07:22.902Z,236.66
2023-07-09T06:08:22.937Z,231.30
2023-07-09T06:09:22.965Z,226.17
2023-07-09T06:10:23.028Z,230.37
2023-07-09T06:11:23.060Z,234.60
2023-07-09T06:12:23.101Z,238.05
2023-07-09T06:13:23.232Z,241.69
2023-07-09T06:14:23.152Z,235.24
2023-07-09T06:15:23.203Z,225.82
2023-07-09T06:16:23.277Z,229.68
2023-07-09T06:17:23.325Z,227.69
2023-07-09T06:18:23.297Z,222.87
2023-07-09T06:19:23.302Z,214.68
2023-07-09T06:20:23.330Z,209.86
2023-07-09T06:21:23.359Z,206.31
2023-07-09T06:22:23.407Z,212.14
2023-07-09T06:23:23.490Z,212.25
2023-07-09T06:24:23.449Z,214.37
2023-07-09T06:25:23.537Z,216.02
2023-07-09T06:26:23.540Z,213.43
2023-07-09T06:27:23.572Z,216.90
2023-07-09T06:28:23.582Z,217.54
2023-07-09T06:29:23.633Z,225.11
2023-07-09T06:30:23.709Z,223.53
2023-07-09T06:31:23.707Z,212.18
2023-07-09T06:32:23.762Z,216.99
2023-07-09T06:33:23.719Z,217.74
2023-07-09T06:34:23.771Z,212.30
2023-07-09T06:35:23.786Z,200.58
2023-07-09T06:36:23.809Z,212.93
2023-07-09T06:37:23.897Z,208.01
2023-07-09T06:38:23.836Z,204.43
2023-07-09T06:39:23.852Z,205.15
2023-07-09T06:40:23.880Z,204.21
2023-07-09T06:41:23.919Z,201.03
2023-07-09T06:42:23.878Z,216.48
2023-07-09T06:43:23.920Z,202.60
2023-07-09T06:44:24.067Z,193.86
2023-07-09T06:45:24.107Z,207.44
2023-07-09T06:46:24.131Z,208.22
2023-07-09T06:47:24.195Z,208.20
2023-07-09T06:48:24.164Z,210.99
2023-07-09T06:49:24.188Z,200.48
2023-07-09T06:50:24.191Z,187.20
2023-07-09T06:51:24.198Z,194.85
2023-07-09T06:52:24.193Z,188.35
2023-07-09T06:53:24.242Z,188.14
2023-07-09T06:54:24.249Z,197.11
2023-07-09T06:55:24.262Z,200.95
2023-07-09T06:56:24.299Z,199.04
2023-07-09T06:57:24.308Z,185.82
2023-07-09T06:58:24.311Z,179.56
2023-07-09T06:59:24.346Z,173.22
2023-07-09T07:00:24.403Z,169.86
2023-07-09T07:01:24.463Z,177.52
2023-07-09T07:02:24.445Z,195.89
2023-07-09T07:03:24.830Z,200.44
2023-07-09T07:04:24.429Z,199.46
2023-07-09T07:05:24.493Z,199.75
2023-07-09T07:06:24.477Z,203.54
2023-07-09T07:07:24.503Z,202.96
2023-07-09T07:08:24.526Z,193.23
2023-07-09T07:09:24.586Z,195.01
2023-07-09T07:10:24.688Z,206.49
2023-07-09T07:11:24.710Z,207.13
2023-07-09T07:12:24.681Z,188.10
2023-07-09T07:13:24.731Z,199.78
2023-07-09T07:14:24.726Z,190.42
2023-07-09T07:15:24.688Z,170.62
2023-07-09T07:16:24.807Z,170.37
2023-07-09T07:17:24.740Z,177.15
2023-07-09T07:18:24.763Z,162.61
2023-07-09T07:19:24.748Z,174.39
2023-07-09T07:20:24.793Z,173.47
2023-07-09T07:21:24.792Z,188.24
2023-07-09T07:22:24.812Z,178.82
2023-07-09T07:23:24.925Z,176.26
2023-07-09T07:24:24.941Z,183.31
2023-07-09T07:25:24.891Z,184.41
2023-07-09T07:26:24.922Z,171.50
2023-07-09T07:27:24.929Z,159.48
2023-07-09T07:28:24.913Z,145.59
2023-07-09T07:29:24.905Z,152.91
2023-07-09T07:30:26.400Z,166.10
2023-07-09T07:31:24.951Z,176.81
2023-07-09T07:32:24.980Z,184.48
2023-07-09T07:33:24.959Z,184.18
2023-07-09T07:34:25.033Z,186.34
2023-07-09T07:35:25.085Z,208.87
2023-07-09T07:36:30.910Z,215.35
2023-07-09T07:37:26.152Z,215.83
2023-07-09T07:38:25.162Z,221.43
2023-07-09T07:39:25.136Z,222.04
2023-07-09T07:40:25.218Z,244.97
2023-07-09T07:41:25.157Z,250.26
2023-07-09T07:42:25.112Z,233.83
2023-07-09T07:43:25.103Z,284.13
2023-07-09T07:44:25.112Z,278.56
2023-07-09T07:45:25.097Z,272.14
2023-07-09T07:46:25.159Z,262.28
2023-07-09T07:47:25.121Z,250.64
2023-07-09T07:48:25.105Z,245.00
2023-07-09T07:49:25.150Z,245.17
2023-07-09T07:50:25.178Z,242.88
2023-07-09T07:51:25.223Z,241.94
2023-07-09T07:52:25.237Z,233.44
2023-07-09T07:53:25.285Z,239.22
2023-07-09T07:54:25.288Z,238.31
2023-07-09T07:55:25.285Z,241.18
2023-07-09T07:56:25.347Z,237.37
2023-07-09T07:57:25.339Z,234.95
2023-07-09T07:58:25.378Z,230.28
2023-07-09T07:59:25.441Z,232.01
2023-07-09T08:00:25.439Z,231.57
2023-07-09T08:01:25.491Z,224.88
2023-07-09T08:02:25.560Z,220.18
2023-07-09T08:03:25.580Z,230.85
2023-07-09T08:04:25.709Z,227.69
2023-07-09T08:05:25.576Z,230.70
2023-07-09T08:06:25.586Z,225.86
2023-07-09T08:07:25.575Z,227.65
2023-07-09T08:08:25.576Z,228.33
2023-07-09T08:09:25.657Z,225.48
2023-07-09T08:10:25.631Z,230.50
2023-07-09T08:11:25.658Z,237.44
2023-07-09T08:12:25.684Z,238.09
2023-07-09T08:13:25.723Z,240.44
2023-07-09T08:14:25.746Z,241.14
2023-07-09T08:15:25.753Z,244.17
2023-07-09T08:16:25.774Z,245.77
2023-07-09T08:17:25.797Z,249.21
2023-07-09T08:18:25.821Z,249.59
2023-07-09T08:19:25.801Z,248.38
2023-07-09T08:20:25.826Z,246.67
2023-07-09T08:21:25.844Z,244.91
2023-07-09T08:22:25.867Z,246.00
2023-07-09T08:23:25.862Z,247.07
2023-07-09T08:24:25.877Z,236.44
2023-07-09T08:25:25.883Z,236.39
2023-07-09T08:26:25.899Z,230.64
2023-07-09T08:27:25.898Z,230.06
2023-07-09T08:28:25.917Z,230.52
2023-07-09T08:29:25.913Z,231.83
2023-07-09T08:30:25.938Z,229.95
2023-07-09T08:31:25.959Z,224.78
2023-07-09T08:32:25.908Z,214.26
2023-07-09T08:33:25.918Z,211.98
2023-07-09T08:34:25.949Z,208.08
2023-07-09T08:35:36.009Z,203.12
2023-07-09T08:36:29.668Z,203.13
2023-07-09T08:37:25.942Z,202.93
2023-07-09T08:38:25.933Z,200.32
2023-07-09T08:39:25.934Z,200.45
2023-07-09T08:40:25.885Z,197.05
2023-07-09T08:41:25.906Z,193.61
2023-07-09T08:42:25.907Z,191.04
2023-07-09T08:43:25.905Z,186.19
2023-07-09T08:44:25.898Z,187.97
2023-07-09T08:45:25.859Z,186.77
2023-07-09T08:46:25.880Z,189.11
2023-07-09T08:47:25.914Z,188.92
2023-07-09T08:48:25.853Z,185.12
2023-07-09T08:49:25.863Z,180.36
2023-07-09T08:50:26.392Z,179.48
2023-07-09T08:51:25.832Z,177.90
2023-07-09T08:52:25.825Z,182.42
2023-07-09T08:53:25.842Z,184.33
2023-07-09T08:54:27.931Z,185.89
2023-07-09T08:55:25.786Z,188.90
2023-07-09T08:56:25.790Z,185.19
2023-07-09T08:57:25.819Z,183.51
2023-07-09T08:58:25.803Z,183.47
2023-07-09T08:59:25.799Z,178.73
2023-07-09T09:00:25.806Z,177.72
2023-07-09T09:01:25.855Z,175.04
2023-07-09T09:02:25.837Z,174.53
2023-07-09T09:03:25.809Z,178.42
2023-07-09T09:04:25.778Z,176.57
2023-07-09T09:05:25.776Z,176.04
2023-07-09T09:06:25.780Z,177.61
2023-07-09T09:07:25.751Z,172.76
2023-07-09T09:08:25.759Z,174.69
2023-07-09T09:09:25.745Z,174.14
2023-07-09T09:10:25.708Z,172.39
2023-07-09T09:11:25.703Z,173.09
2023-07-09T09:12:25.700Z,172.15
2023-07-09T09:13:25.729Z,170.89
2023-07-09T09:14:25.744Z,169.28
2023-07-09T09:15:25.693Z,169.84
2023-07-09T09:16:25.705Z,170.66
2023-07-09T09:17:25.756Z,170.57
2023-07-09T09:18:25.697Z,172.50
2023-07-09T09:19:25.655Z,172.91
2023-07-09T09:20:25.654Z,170.42
2023-07-09T09:21:25.653Z,171.52
2023-07-09T09:22:25.643Z,163.88
2023-07-09T09:23:25.652Z,159.92
2023-07-09T09:24:25.705Z,159.30
2023-07-09T09:25:25.650Z,155.86
2023-07-09T09:26:25.609Z,155.71
2023-07-09T09:27:25.609Z,153.21
2023-07-09T09:28:25.593Z,153.40
2023-07-09T09:29:25.589Z,150.65
2023-07-09T09:30:25.596Z,151.28
2023-07-09T09:31:25.602Z,149.60
2023-07-09T09:32:25.600Z,150.04
2023-07-09T09:33:25.592Z,148.64
2023-07-09T09:34:25.595Z,150.65
2023-07-09T09:35:25.557Z,144.14
2023-07-09T09:36:25.563Z,144.87
2023-07-09T09:37:25.523Z,144.31
2023-07-09T09:38:25.578Z,141.39
2023-07-09T09:39:25.541Z,143.65
2023-07-09T09:40:25.529Z,146.66
2023-07-09T09:41:25.519Z,147.54
2023-07-09T09:42:25.511Z,150.97
2023-07-09T09:43:25.524Z,147.11
2023-07-09T09:44:25.503Z,142.59
2023-07-09T09:45:25.524Z,139.98
2023-07-09T09:46:25.622Z,140.80
2023-07-09T09:47:25.755Z,139.06
2023-07-09T09:48:25.715Z,139.81
2023-07-09T09:49:25.764Z,139.64
2023-07-09T09:50:25.805Z,137.12
2023-07-09T09:51:25.862Z,137.64
2023-07-09T09:52:27.287Z,135.00
2023-07-09T09:53:25.995Z,135.21
2023-07-09T09:54:26.047Z,140.13
2023-07-09T09:55:26.111Z,142.20
2023-07-09T09:56:26.184Z,143.39
2023-07-09T09:57:26.305Z,138.18
2023-07-09T09:58:26.304Z,139.76
2023-07-09T09:59:26.345Z,139.29
2023-07-09T10:00:26.449Z,137.41
2023-07-09T10:01:26.550Z,134.55
2023-07-09T10:02:26.637Z,136.32
2023-07-09T10:03:26.706Z,134.96
2023-07-09T10:04:26.659Z,132.63
2023-07-09T10:05:26.695Z,133.46
2023-07-09T10:06:26.789Z,128.83
2023-07-09T10:07:26.810Z,122.40
2023-07-09T10:08:26.874Z,121.03
2023-07-09T10:09:28.641Z,122.12
2023-07-09T10:10:26.930Z,120.32
2023-07-09T10:11:26.955Z,116.97
2023-07-09T10:12:26.920Z,115.72
2023-07-09T10:13:26.953Z,114.35
2023-07-09T10:14:26.900Z,114.00
2023-07-09T10:15:26.887Z,113.61
2023-07-09T10:16:26.892Z,115.25
2023-07-09T10:17:26.949Z,114.81
2023-07-09T10:18:26.949Z,111.17
2023-07-09T10:19:27.352Z,108.58
2023-07-09T10:20:28.688Z,101.99
2023-07-09T10:21:26.902Z,98.82
2023-07-09T10:22:26.878Z,95.46
2023-07-09T10:23:26.878Z,93.80
2023-07-09T10:24:26.831Z,97.09
2023-07-09T10:25:26.849Z,97.22
2023-07-09T10:26:26.824Z,93.51
2023-07-09T10:27:26.862Z,97.27
2023-07-09T10:28:26.856Z,94.68
2023-07-09T10:29:26.806Z,95.52
2023-07-09T10:30:26.879Z,93.85
2023-07-09T10:31:27.008Z,86.91
2023-07-09T10:32:26.944Z,89.95
2023-07-09T10:33:26.996Z,89.02
2023-07-09T10:34:27.000Z,87.45
2023-07-09T10:35:27.059Z,95.73
2023-07-09T10:36:27.061Z,95.61
2023-07-09T10:37:27.114Z,92.21
2023-07-09T10:38:27.144Z,87.53
2023-07-09T10:39:27.188Z,86.01
2023-07-09T10:40:27.219Z,82.44
2023-07-09T10:41:28.093Z,82.72
2023-07-09T10:42:27.325Z,81.26
2023-07-09T10:43:27.377Z,83.43
2023-07-09T10:44:27.414Z,83.60
2023-07-09T10:45:27.476Z,82.66
2023-07-09T10:46:27.601Z,84.13
2023-07-09T10:47:27.593Z,83.32
2023-07-09T10:48:27.613Z,83.64
2023-07-09T10:49:27.684Z,83.44
2023-07-09T10:50:27.747Z,80.93
2023-07-09T10:51:27.786Z,74.95
2023-07-09T10:52:27.861Z,72.93
2023-07-09T10:53:27.858Z,69.92
2023-07-09T10:54:27.914Z,65.08
2023-07-09T10:55:27.906Z,66.73
2023-07-09T10:56:28.008Z,66.21
2023-07-09T10:57:28.042Z,59.57
2023-07-09T10:58:28.061Z,60.77
2023-07-09T10:59:28.083Z,63.38
2023-07-09T11:00:28.118Z,63.16
2023-07-09T11:01:28.196Z,63.06
2023-07-09T11:02:28.229Z,59.87
2023-07-09T11:03:28.439Z,52.35
2023-07-09T11:04:28.340Z,50.66
2023-07-09T11:05:28.302Z,54.65
2023-07-09T11:06:28.351Z,50.90
2023-07-09T11:07:28.400Z,45.03
2023-07-09T11:08:28.483Z,42.50
2023-07-09T11:09:28.513Z,43.84
2023-07-09T11:10:28.546Z,42.91
2023-07-09T11:11:28.559Z,41.26
2023-07-09T11:12:28.603Z,41.62
2023-07-09T11:13:39.104Z,42.71
2023-07-09T11:14:29.695Z,37.70
2023-07-09T11:15:28.652Z,37.70
2023-07-09T11:16:28.700Z,41.31
2023-07-09T11:17:28.743Z,41.29
2023-07-09T11:18:28.603Z,42.66
2023-07-09T11:19:28.621Z,45.38
2023-07-09T11:20:28.604Z,42.41
2023-07-09T11:21:28.606Z,39.41
2023-07-09T11:22:28.630Z,37.87
2023-07-09T11:23:28.619Z,37.29
2023-07-09T11:24:28.606Z,28.93
2023-07-09T11:25:28.565Z,25.69
2023-07-09T11:26:28.555Z,25.44
2023-07-09T11:27:28.626Z,31.66
2023-07-09T11:28:28.673Z,27.22
2023-07-09T11:29:28.678Z,25.00
2023-07-09T11:30:28.721Z,26.22
2023-07-09T11:31:28.792Z,25.38
2023-07-09T11:32:28.798Z,26.07
2023-07-09T11:33:28.924Z,26.96
2023-07-09T11:34:28.806Z,25.00
2023-07-09T11:35:28.811Z,28.98
2023-07-09T11:36:28.801Z,25.37
2023-07-09T11:37:28.824Z,27.58
2023-07-09T11:38:28.872Z,27.46
2023-07-09T11:39:28.880Z,30.00
2023-07-09T11:40:28.908Z,26.80
2023-07-09T11:41:28.957Z,29.62
2023-07-09T11:42:28.994Z,27.28
2023-07-09T11:43:29.004Z,26.64
2023-07-09T11:44:29.009Z,29.43
2023-07-09T11:45:29.055Z,24.54
2023-07-09T11:46:29.064Z,26.67
2023-07-09T11:47:29.138Z,27.38
2023-07-09T11:48:29.107Z,29.01
2023-07-09T11:49:29.151Z,26.13
2023-07-09T11:50:29.210Z,28.61
2023-07-09T11:51:29.207Z,28.65
2023-07-09T11:52:29.209Z,29.33
2023-07-09T11:53:29.253Z,25.26
2023-07-09T11:54:29.245Z,26.14
2023-07-09T11:55:29.331Z,26.75
2023-07-09T11:56:29.327Z,28.92
2023-07-09T11:57:29.327Z,25.00
2023-07-09T11:58:29.370Z,25.99
2023-07-09T11:59:29.396Z,27.84
2023-07-09T12:00:29.428Z,31.04
2023-07-09T12:01:29.498Z,29.70
2023-07-09T12:02:29.475Z,34.18
2023-07-09T12:03:29.530Z,34.77
2023-07-09T12:04:29.491Z,31.95
2023-07-09T12:05:29.518Z,37.98
2023-07-09T12:06:29.543Z,38.54
2023-07-09T12:07:30.657Z,36.79
2023-07-09T12:08:29.599Z,35.94
2023-07-09T12:09:29.587Z,35.49
2023-07-09T12:10:29.649Z,34.09
2023-07-09T12:11:29.670Z,33.53
2023-07-09T12:12:29.743Z,33.78
2023-07-09T12:13:29.732Z,37.94
2023-07-09T12:14:29.711Z,33.60
2023-07-09T12:15:29.755Z,29.99
2023-07-09T12:16:29.822Z,29.00
2023-07-09T12:17:29.855Z,28.46
2023-07-09T12:18:29.845Z,27.02
2023-07-09T12:19:29.854Z,30.21
2023-07-09T12:20:29.864Z,26.44
2023-07-09T12:21:29.857Z,27.55
2023-07-09T12:22:29.880Z,29.28
2023-07-09T12:23:29.891Z,29.65
2023-07-09T12:24:29.932Z,29.93
2023-07-09T12:25:29.943Z,26.32
2023-07-09T12:26:29.966Z,30.15
2023-07-09T12:27:29.965Z,26.88
2023-07-09T12:28:29.989Z,26.74
2023-07-09T12:29:30.031Z,26.70
2023-07-09T12:30:30.020Z,28.17
2023-07-09T12:31:30.068Z,30.35
2023-07-09T12:32:30.081Z,33.46